sensor_id;sensor_type;location;lat;lon;timestamp;pressure;altitude;pressure_sealevel;temperature;humidity
6128;BME280;7073;42.672;23.256;2023-02-10T00:02:06;96125.00;;;-5.35;88.58
6128;BME280;7073;42.672;23.256;2023-02-10T00:04:33;96112.31;;;-5.35;87.80
6128;BME280;7073;42.672;23.256;2023-02-10T00:07:00;96131.56;;;-5.14;86.84
6128;BME280;7073;42.672;23.256;2023-02-10T00:09:26;96136.56;;;-5.13;86.83
6128;BME280;7073;42.672;23.256;2023-02-10T00:11:56;96133.03;;;-5.10;86.42
6128;BME280;7073;42.672;23.256;2023-02-10T00:14:25;96124.63;;;-5.45;87.80
6128;BME280;7073;42.672;23.256;2023-02-10T00:16:58;96134.25;;;-5.34;88.04
6128;BME280;7073;42.672;23.256;2023-02-10T00:19:28;96128.59;;;-5.39;87.80
6128;BME280;7073;42.672;23.256;2023-02-10T00:21:56;96131.56;;;-5.31;88.02
6128;BME280;7073;42.672;23.256;2023-02-10T00:24:23;96128.06;;;-5.12;87.26
6128;BME280;7073;42.672;23.256;2023-02-10T00:26:50;96125.31;;;-5.41;87.06
6128;BME280;7073;42.672;23.256;2023-02-10T00:29:17;96120.53;;;-5.65;87.81
6128;BME280;7073;42.672;23.256;2023-02-10T00:31:44;96121.94;;;-5.76;88.00
6128;BME280;7073;42.672;23.256;2023-02-10T00:34:11;96118.94;;;-5.84;89.00
6128;BME280;7073;42.672;23.256;2023-02-10T00:36:40;96123.88;;;-5.81;89.95
6128;BME280;7073;42.672;23.256;2023-02-10T00:39:08;96126.81;;;-5.89;89.94
6128;BME280;7073;42.672;23.256;2023-02-10T00:41:38;96110.25;;;-5.62;89.55
6128;BME280;7073;42.672;23.256;2023-02-10T00:44:08;96102.41;;;-5.57;88.98
6128;BME280;7073;42.672;23.256;2023-02-10T00:46:35;96106.78;;;-5.61;88.45
6128;BME280;7073;42.672;23.256;2023-02-10T00:49:02;96103.97;;;-5.72;88.42
6128;BME280;7073;42.672;23.256;2023-02-10T00:51:32;96102.97;;;-5.85;88.59
6128;BME280;7073;42.672;23.256;2023-02-10T00:54:00;96102.84;;;-6.00;90.02
6128;BME280;7073;42.672;23.256;2023-02-10T00:56:27;96097.47;;;-5.94;89.55
6128;BME280;7073;42.672;23.256;2023-02-10T00:58:54;96093.91;;;-5.90;90.06
6128;BME280;7073;42.672;23.256;2023-02-10T01:01:21;96095.03;;;-5.96;89.88
6128;BME280;7073;42.672;23.256;2023-02-10T01:03:48;96083.44;;;-5.84;89.36
6128;BME280;7073;42.672;23.256;2023-02-10T01:06:14;96087.06;;;-5.88;89.09
6128;BME280;7073;42.672;23.256;2023-02-10T01:08:41;96088.44;;;-5.83;89.36
6128;BME280;7073;42.672;23.256;2023-02-10T01:11:11;96091.22;;;-5.87;89.30
6128;BME280;7073;42.672;23.256;2023-02-10T01:13:39;96096.50;;;-5.92;89.05
6128;BME280;7073;42.672;23.256;2023-02-10T01:16:08;96091.75;;;-5.98;89.43
6128;BME280;7073;42.672;23.256;2023-02-10T01:18:35;96088.22;;;-6.12;89.75
6128;BME280;7073;42.672;23.256;2023-02-10T01:21:06;96082.44;;;-6.33;90.66
6128;BME280;7073;42.672;23.256;2023-02-10T01:23:33;96081.97;;;-6.41;90.89
6128;BME280;7073;42.672;23.256;2023-02-10T01:26:00;96083.78;;;-6.26;91.37
6128;BME280;7073;42.672;23.256;2023-02-10T01:28:28;96068.69;;;-5.93;91.72
6128;BME280;7073;42.672;23.256;2023-02-10T01:30:55;96070.69;;;-5.83;91.08
6128;BME280;7073;42.672;23.256;2023-02-10T01:33:23;96067.44;;;-5.85;90.07
6128;BME280;7073;42.672;23.256;2023-02-10T01:35:49;96072.66;;;-5.88;89.64
6128;BME280;7073;42.672;23.256;2023-02-10T01:38:16;96063.84;;;-5.98;89.83
6128;BME280;7073;42.672;23.256;2023-02-10T01:40:43;96071.28;;;-6.12;90.29
6128;BME280;7073;42.672;23.256;2023-02-10T01:43:12;96069.25;;;-6.05;89.87
6128;BME280;7073;42.672;23.256;2023-02-10T01:45:42;96073.91;;;-5.96;89.79
6128;BME280;7073;42.672;23.256;2023-02-10T01:48:09;96058.97;;;-6.19;90.29
6128;BME280;7073;42.672;23.256;2023-02-10T01:50:38;96065.09;;;-6.06;90.10
6128;BME280;7073;42.672;23.256;2023-02-10T01:53:06;96060.81;;;-6.23;90.16
6128;BME280;7073;42.672;23.256;2023-02-10T01:55:34;96065.19;;;-6.44;91.22
6128;BME280;7073;42.672;23.256;2023-02-10T01:58:05;96064.25;;;-6.24;91.70
6128;BME280;7073;42.672;23.256;2023-02-10T02:00:33;96049.31;;;-6.11;91.63
6128;BME280;7073;42.672;23.256;2023-02-10T02:03:02;96037.44;;;-5.94;90.75
6128;BME280;7073;42.672;23.256;2023-02-10T02:05:32;96044.41;;;-5.82;90.33
6128;BME280;7073;42.672;23.256;2023-02-10T02:08:03;96039.91;;;-6.09;89.47
6128;BME280;7073;42.672;23.256;2023-02-10T02:10:58;96036.16;;;-6.19;90.13
6128;BME280;7073;42.672;23.256;2023-02-10T02:13:46;96031.31;;;-6.07;90.16
6128;BME280;7073;42.672;23.256;2023-02-10T02:16:21;96036.63;;;-5.94;89.82
6128;BME280;7073;42.672;23.256;2023-02-10T02:19:00;96030.28;;;-5.86;89.35
6128;BME280;7073;42.672;23.256;2023-02-10T02:21:49;96035.13;;;-6.15;88.82
6128;BME280;7073;42.672;23.256;2023-02-10T02:24:46;96024.56;;;-6.42;90.57
6128;BME280;7073;42.672;23.256;2023-02-10T02:27:38;96031.88;;;-6.36;90.13
6128;BME280;7073;42.672;23.256;2023-02-10T02:30:21;96029.22;;;-6.16;89.96
6128;BME280;7073;42.672;23.256;2023-02-10T02:32:57;96023.94;;;-6.64;91.04
6128;BME280;7073;42.672;23.256;2023-02-10T02:35:31;96034.91;;;-6.64;91.63
6128;BME280;7073;42.672;23.256;2023-02-10T02:37:59;96041.19;;;-6.54;91.37
6128;BME280;7073;42.672;23.256;2023-02-10T02:40:26;96028.88;;;-6.44;91.72
6128;BME280;7073;42.672;23.256;2023-02-10T02:42:52;96025.38;;;-6.42;90.90
6128;BME280;7073;42.672;23.256;2023-02-10T02:45:21;96029.81;;;-6.28;91.42
6128;BME280;7073;42.672;23.256;2023-02-10T02:48:15;96025.28;;;-6.22;90.48
6128;BME280;7073;42.672;23.256;2023-02-10T02:50:51;96031.75;;;-6.16;90.33
6128;BME280;7073;42.672;23.256;2023-02-10T02:53:26;96025.13;;;-6.01;90.62
6128;BME280;7073;42.672;23.256;2023-02-10T02:56:03;96018.09;;;-6.13;90.38
6128;BME280;7073;42.672;23.256;2023-02-10T02:58:40;95991.19;;;-6.33;90.42
6128;BME280;7073;42.672;23.256;2023-02-10T03:01:12;96021.78;;;-6.19;90.12
6128;BME280;7073;42.672;23.256;2023-02-10T03:03:41;96018.03;;;-6.29;90.37
6128;BME280;7073;42.672;23.256;2023-02-10T03:06:09;96019.34;;;-6.39;90.81
6128;BME280;7073;42.672;23.256;2023-02-10T03:08:39;96017.28;;;-6.31;91.04
6128;BME280;7073;42.672;23.256;2023-02-10T03:11:07;96007.88;;;-6.46;90.74
6128;BME280;7073;42.672;23.256;2023-02-10T03:13:33;96019.25;;;-6.19;90.68
6128;BME280;7073;42.672;23.256;2023-02-10T03:16:00;96024.31;;;-6.19;89.92
6128;BME280;7073;42.672;23.256;2023-02-10T03:18:28;96031.47;;;-6.27;89.88
6128;BME280;7073;42.672;23.256;2023-02-10T03:20:56;96028.75;;;-6.24;90.34
6128;BME280;7073;42.672;23.256;2023-02-10T03:23:23;96018.25;;;-6.34;89.48
6128;BME280;7073;42.672;23.256;2023-02-10T03:25:50;96026.59;;;-6.32;89.48
6128;BME280;7073;42.672;23.256;2023-02-10T03:28:17;96008.34;;;-6.38;90.12
6128;BME280;7073;42.672;23.256;2023-02-10T03:30:44;96021.84;;;-6.38;89.76
6128;BME280;7073;42.672;23.256;2023-02-10T03:33:16;96025.78;;;-6.32;89.24
6128;BME280;7073;42.672;23.256;2023-02-10T03:35:43;96006.47;;;-6.35;89.31
6128;BME280;7073;42.672;23.256;2023-02-10T03:38:12;96020.03;;;-6.18;89.51
6128;BME280;7073;42.672;23.256;2023-02-10T03:40:39;96028.38;;;-6.34;89.27
6128;BME280;7073;42.672;23.256;2023-02-10T03:43:06;96018.47;;;-6.38;90.19
6128;BME280;7073;42.672;23.256;2023-02-10T03:45:33;96008.47;;;-6.41;89.48
6128;BME280;7073;42.672;23.256;2023-02-10T03:48:00;96005.47;;;-6.49;89.01
6128;BME280;7073;42.672;23.256;2023-02-10T03:50:27;96004.81;;;-6.71;91.14
6128;BME280;7073;42.672;23.256;2023-02-10T03:52:54;95997.19;;;-6.53;90.49
6128;BME280;7073;42.672;23.256;2023-02-10T03:55:22;96001.56;;;-6.38;89.79
6128;BME280;7073;42.672;23.256;2023-02-10T03:57:49;95997.91;;;-6.32;90.84
6128;BME280;7073;42.672;23.256;2023-02-10T04:00:16;95988.16;;;-6.58;90.08
6128;BME280;7073;42.672;23.256;2023-02-10T04:02:43;95997.59;;;-6.26;90.15
6128;BME280;7073;42.672;23.256;2023-02-10T04:05:10;95995.75;;;-6.23;89.36
6128;BME280;7073;42.672;23.256;2023-02-10T04:07:37;96000.00;;;-6.23;88.62
6128;BME280;7073;42.672;23.256;2023-02-10T04:10:05;95995.25;;;-6.48;88.95
6128;BME280;7073;42.672;23.256;2023-02-10T04:12:33;95995.47;;;-6.69;90.06
6128;BME280;7073;42.672;23.256;2023-02-10T04:15:00;95995.31;;;-6.66;90.82
6128;BME280;7073;42.672;23.256;2023-02-10T04:17:27;96001.28;;;-6.50;89.37
6128;BME280;7073;42.672;23.256;2023-02-10T04:19:53;96002.25;;;-6.53;89.56
6128;BME280;7073;42.672;23.256;2023-02-10T04:22:20;96005.56;;;-6.51;88.71
6128;BME280;7073;42.672;23.256;2023-02-10T04:24:47;95999.16;;;-6.41;89.17
6128;BME280;7073;42.672;23.256;2023-02-10T04:27:14;96001.19;;;-6.30;88.70
6128;BME280;7073;42.672;23.256;2023-02-10T04:29:42;96003.34;;;-6.23;88.21
6128;BME280;7073;42.672;23.256;2023-02-10T04:32:08;96002.53;;;-6.23;87.75
6128;BME280;7073;42.672;23.256;2023-02-10T04:34:35;96005.81;;;-6.38;87.38
6128;BME280;7073;42.672;23.256;2023-02-10T04:37:02;96003.47;;;-6.78;89.85
6128;BME280;7073;42.672;23.256;2023-02-10T04:39:29;96006.94;;;-6.98;90.86
6128;BME280;7073;42.672;23.256;2023-02-10T04:41:56;95994.41;;;-7.20;94.53
6128;BME280;7073;42.672;23.256;2023-02-10T04:44:22;96001.91;;;-7.00;96.20
6128;BME280;7073;42.672;23.256;2023-02-10T04:46:50;96002.19;;;-6.87;95.73
6128;BME280;7073;42.672;23.256;2023-02-10T04:49:17;96008.44;;;-6.58;95.17
6128;BME280;7073;42.672;23.256;2023-02-10T04:51:44;96012.44;;;-6.71;95.02
6128;BME280;7073;42.672;23.256;2023-02-10T04:54:11;96013.97;;;-6.86;95.65
6128;BME280;7073;42.672;23.256;2023-02-10T04:56:38;96014.81;;;-6.68;93.91
6128;BME280;7073;42.672;23.256;2023-02-10T04:59:05;96013.50;;;-6.58;93.12
6128;BME280;7073;42.672;23.256;2023-02-10T05:01:32;96017.56;;;-6.73;92.28
6128;BME280;7073;42.672;23.256;2023-02-10T05:04:00;95999.31;;;-7.35;93.39
6128;BME280;7073;42.672;23.256;2023-02-10T05:06:27;96015.38;;;-7.36;93.96
6128;BME280;7073;42.672;23.256;2023-02-10T05:08:54;96013.09;;;-7.04;94.74
6128;BME280;7073;42.672;23.256;2023-02-10T05:11:21;96018.53;;;-6.75;93.15
6128;BME280;7073;42.672;23.256;2023-02-10T05:13:48;96017.31;;;-6.50;92.66
6128;BME280;7073;42.672;23.256;2023-02-10T05:16:15;96026.81;;;-6.36;92.08
6128;BME280;7073;42.672;23.256;2023-02-10T05:18:42;96027.09;;;-6.42;91.79
6128;BME280;7073;42.672;23.256;2023-02-10T05:21:12;96033.66;;;-6.74;89.95
6128;BME280;7073;42.672;23.256;2023-02-10T05:23:40;96046.16;;;-6.71;90.62
6128;BME280;7073;42.672;23.256;2023-02-10T05:26:07;96049.25;;;-6.64;90.68
6128;BME280;7073;42.672;23.256;2023-02-10T05:28:34;96053.59;;;-6.66;89.90
6128;BME280;7073;42.672;23.256;2023-02-10T05:31:01;96054.72;;;-6.73;89.98
6128;BME280;7073;42.672;23.256;2023-02-10T05:33:32;96052.06;;;-6.70;89.46
6128;BME280;7073;42.672;23.256;2023-02-10T05:35:59;96053.63;;;-6.49;90.26
6128;BME280;7073;42.672;23.256;2023-02-10T05:38:27;96052.25;;;-6.38;90.06
6128;BME280;7073;42.672;23.256;2023-02-10T05:40:54;96065.72;;;-6.37;89.89
6128;BME280;7073;42.672;23.256;2023-02-10T05:43:21;96067.00;;;-6.29;89.22
6128;BME280;7073;42.672;23.256;2023-02-10T05:45:48;96062.91;;;-6.31;88.40
6128;BME280;7073;42.672;23.256;2023-02-10T05:48:14;96059.28;;;-6.44;88.88
6128;BME280;7073;42.672;23.256;2023-02-10T05:50:41;96075.03;;;-6.38;88.24
6128;BME280;7073;42.672;23.256;2023-02-10T05:53:08;96073.53;;;-6.42;87.92
6128;BME280;7073;42.672;23.256;2023-02-10T05:55:36;96077.88;;;-6.62;88.28
6128;BME280;7073;42.672;23.256;2023-02-10T05:58:03;96065.06;;;-6.78;90.17
6128;BME280;7073;42.672;23.256;2023-02-10T06:00:30;96082.25;;;-6.66;90.09
6128;BME280;7073;42.672;23.256;2023-02-10T06:02:57;96082.19;;;-6.46;89.41
6128;BME280;7073;42.672;23.256;2023-02-10T06:05:24;96081.34;;;-6.46;89.69
6128;BME280;7073;42.672;23.256;2023-02-10T06:07:50;96084.75;;;-6.47;89.73
6128;BME280;7073;42.672;23.256;2023-02-10T06:10:20;96091.25;;;-6.23;89.54
6128;BME280;7073;42.672;23.256;2023-02-10T06:12:48;96086.50;;;-5.95;89.59
6128;BME280;7073;42.672;23.256;2023-02-10T06:15:15;96090.84;;;-5.80;88.83
6128;BME280;7073;42.672;23.256;2023-02-10T06:17:41;96100.22;;;-5.65;87.25
6128;BME280;7073;42.672;23.256;2023-02-10T06:20:09;96098.00;;;-5.53;86.71
6128;BME280;7073;42.672;23.256;2023-02-10T06:22:36;96102.81;;;-5.32;86.73
6128;BME280;7073;42.672;23.256;2023-02-10T06:25:03;96103.50;;;-5.28;86.22
6128;BME280;7073;42.672;23.256;2023-02-10T06:27:30;96093.91;;;-5.06;86.66
6128;BME280;7073;42.672;23.256;2023-02-10T06:29:58;96096.91;;;-4.82;85.71
6128;BME280;7073;42.672;23.256;2023-02-10T06:32:24;96106.75;;;-4.61;85.50
6128;BME280;7073;42.672;23.256;2023-02-10T06:34:51;96106.31;;;-5.34;86.64
6128;BME280;7073;42.672;23.256;2023-02-10T06:37:18;96108.53;;;-4.78;86.55
6128;BME280;7073;42.672;23.256;2023-02-10T06:39:45;96112.66;;;-4.76;84.77
6128;BME280;7073;42.672;23.256;2023-02-10T06:42:11;96110.81;;;-5.22;86.12
6128;BME280;7073;42.672;23.256;2023-02-10T06:44:38;96112.03;;;-4.48;85.80
6128;BME280;7073;42.672;23.256;2023-02-10T06:47:06;96105.75;;;-4.74;85.52
6128;BME280;7073;42.672;23.256;2023-02-10T06:49:33;96110.88;;;-4.11;85.30
6128;BME280;7073;42.672;23.256;2023-02-10T06:52:00;96106.78;;;-4.14;82.57
6128;BME280;7073;42.672;23.256;2023-02-10T06:54:27;96120.97;;;-4.10;82.37
6128;BME280;7073;42.672;23.256;2023-02-10T06:56:54;96121.13;;;-4.13;83.73
6128;BME280;7073;42.672;23.256;2023-02-10T06:59:21;96118.81;;;-4.02;81.83
6128;BME280;7073;42.672;23.256;2023-02-10T07:01:48;96125.59;;;-3.71;80.84
6128;BME280;7073;42.672;23.256;2023-02-10T07:04:16;96130.47;;;-3.23;81.24
6128;BME280;7073;42.672;23.256;2023-02-10T07:06:43;96128.91;;;-3.55;79.10
6128;BME280;7073;42.672;23.256;2023-02-10T07:09:10;96129.88;;;-3.42;79.11
6128;BME280;7073;42.672;23.256;2023-02-10T07:11:37;96125.41;;;-3.98;77.86
6128;BME280;7073;42.672;23.256;2023-02-10T07:14:03;96111.53;;;-4.23;79.77
6128;BME280;7073;42.672;23.256;2023-02-10T07:16:30;96118.16;;;-4.05;79.71
6128;BME280;7073;42.672;23.256;2023-02-10T07:18:57;96115.16;;;-3.66;78.69
6128;BME280;7073;42.672;23.256;2023-02-10T07:21:25;96112.22;;;-3.45;75.26
6128;BME280;7073;42.672;23.256;2023-02-10T07:23:52;96117.94;;;-2.97;75.29
6128;BME280;7073;42.672;23.256;2023-02-10T07:26:18;96119.22;;;-2.76;73.82
6128;BME280;7073;42.672;23.256;2023-02-10T07:28:46;96114.47;;;-2.68;73.00
6128;BME280;7073;42.672;23.256;2023-02-10T07:31:13;96123.41;;;-3.03;71.84
6128;BME280;7073;42.672;23.256;2023-02-10T07:33:40;96121.97;;;-2.93;74.34
6128;BME280;7073;42.672;23.256;2023-02-10T07:36:07;96110.72;;;-1.67;80.72
6128;BME280;7073;42.672;23.256;2023-02-10T07:38:35;96109.81;;;-1.93;73.57
6128;BME280;7073;42.672;23.256;2023-02-10T07:41:03;96121.72;;;-2.06;69.84
6128;BME280;7073;42.672;23.256;2023-02-10T07:43:30;96115.63;;;-2.17;70.05
6128;BME280;7073;42.672;23.256;2023-02-10T07:45:57;96113.03;;;-2.44;70.80
6128;BME280;7073;42.672;23.256;2023-02-10T07:48:24;96114.31;;;-2.65;71.58
6128;BME280;7073;42.672;23.256;2023-02-10T07:50:51;96109.56;;;-2.43;69.98
6128;BME280;7073;42.672;23.256;2023-02-10T07:53:17;96117.75;;;-2.38;71.88
6128;BME280;7073;42.672;23.256;2023-02-10T07:55:46;96120.03;;;-2.33;70.69
6128;BME280;7073;42.672;23.256;2023-02-10T07:58:13;96124.88;;;-2.71;70.91
6128;BME280;7073;42.672;23.256;2023-02-10T08:00:40;96130.59;;;-2.39;70.66
6128;BME280;7073;42.672;23.256;2023-02-10T08:03:10;96130.47;;;-2.24;69.35
6128;BME280;7073;42.672;23.256;2023-02-10T08:05:38;96121.19;;;-2.11;66.43
6128;BME280;7073;42.672;23.256;2023-02-10T08:08:06;96137.06;;;-1.93;66.18
6128;BME280;7073;42.672;23.256;2023-02-10T08:10:33;96136.59;;;-1.86;65.56
6128;BME280;7073;42.672;23.256;2023-02-10T08:13:01;96138.44;;;-1.88;62.67
6128;BME280;7073;42.672;23.256;2023-02-10T08:15:28;96123.16;;;-1.75;63.57
6128;BME280;7073;42.672;23.256;2023-02-10T08:17:55;96131.72;;;-1.49;62.52
6128;BME280;7073;42.672;23.256;2023-02-10T08:20:21;96112.56;;;-0.92;61.36
6128;BME280;7073;42.672;23.256;2023-02-10T08:22:48;96121.44;;;-1.35;59.58
6128;BME280;7073;42.672;23.256;2023-02-10T08:25:19;96115.03;;;-1.55;62.35
6128;BME280;7073;42.672;23.256;2023-02-10T08:27:46;96106.53;;;-0.91;61.39
6128;BME280;7073;42.672;23.256;2023-02-10T08:30:20;96112.53;;;-0.41;59.01
6128;BME280;7073;42.672;23.256;2023-02-10T08:32:46;96120.13;;;-1.15;60.53
6128;BME280;7073;42.672;23.256;2023-02-10T08:35:13;96121.19;;;-0.93;60.22
6128;BME280;7073;42.672;23.256;2023-02-10T08:37:45;96113.09;;;-0.13;57.37
6128;BME280;7073;42.672;23.256;2023-02-10T08:40:25;96126.72;;;-1.38;59.58
6128;BME280;7073;42.672;23.256;2023-02-10T08:42:52;96120.72;;;-1.37;58.31
6128;BME280;7073;42.672;23.256;2023-02-10T08:45:20;96118.81;;;-0.96;59.71
6128;BME280;7073;42.672;23.256;2023-02-10T08:47:47;96119.22;;;-0.51;58.16
6128;BME280;7073;42.672;23.256;2023-02-10T08:50:14;96108.59;;;0.15;57.57
6128;BME280;7073;42.672;23.256;2023-02-10T08:52:41;96117.59;;;-0.78;59.31
6128;BME280;7073;42.672;23.256;2023-02-10T08:55:09;96117.56;;;-0.52;58.50
6128;BME280;7073;42.672;23.256;2023-02-10T08:57:37;96122.16;;;-0.32;57.37
6128;BME280;7073;42.672;23.256;2023-02-10T09:00:05;96111.13;;;-0.09;55.04
6128;BME280;7073;42.672;23.256;2023-02-10T09:02:34;96117.47;;;0.22;54.67
6128;BME280;7073;42.672;23.256;2023-02-10T09:05:01;96113.00;;;-0.24;56.31
6128;BME280;7073;42.672;23.256;2023-02-10T09:07:28;96107.06;;;0.12;56.89
6128;BME280;7073;42.672;23.256;2023-02-10T09:09:54;96113.09;;;0.11;55.54
6128;BME280;7073;42.672;23.256;2023-02-10T09:12:21;96101.19;;;-0.01;56.88
6128;BME280;7073;42.672;23.256;2023-02-10T09:14:48;96103.41;;;0.27;55.58
6128;BME280;7073;42.672;23.256;2023-02-10T09:17:15;96101.38;;;-0.04;55.23
6128;BME280;7073;42.672;23.256;2023-02-10T09:19:43;96100.22;;;0.36;55.65
6128;BME280;7073;42.672;23.256;2023-02-10T09:22:10;96094.72;;;1.10;54.53
6128;BME280;7073;42.672;23.256;2023-02-10T09:24:38;96101.91;;;1.05;53.43
6128;BME280;7073;42.672;23.256;2023-02-10T09:27:05;96104.53;;;1.72;50.57
6128;BME280;7073;42.672;23.256;2023-02-10T09:29:31;96100.91;;;0.38;52.95
6128;BME280;7073;42.672;23.256;2023-02-10T09:31:59;96105.00;;;0.76;52.32
6128;BME280;7073;42.672;23.256;2023-02-10T09:34:26;96086.19;;;0.99;51.18
6128;BME280;7073;42.672;23.256;2023-02-10T09:36:56;96084.47;;;1.55;52.81
6128;BME280;7073;42.672;23.256;2023-02-10T09:39:26;96070.44;;;1.59;52.03
6128;BME280;7073;42.672;23.256;2023-02-10T09:41:59;96084.56;;;1.20;52.59
6128;BME280;7073;42.672;23.256;2023-02-10T09:44:32;96083.78;;;2.18;50.13
6128;BME280;7073;42.672;23.256;2023-02-10T09:47:22;96087.19;;;2.18;50.42
6128;BME280;7073;42.672;23.256;2023-02-10T09:50:05;96092.38;;;2.39;48.93
6128;BME280;7073;42.672;23.256;2023-02-10T09:52:51;96086.69;;;2.77;48.67
6128;BME280;7073;42.672;23.256;2023-02-10T09:55:22;96082.91;;;2.39;48.33
6128;BME280;7073;42.672;23.256;2023-02-10T09:57:57;96082.25;;;2.99;48.07
6128;BME280;7073;42.672;23.256;2023-02-10T10:00:28;96069.47;;;3.39;46.69
6128;BME280;7073;42.672;23.256;2023-02-10T10:02:57;96074.59;;;2.88;48.63
6128;BME280;7073;42.672;23.256;2023-02-10T10:05:43;96074.53;;;2.99;46.53
6128;BME280;7073;42.672;23.256;2023-02-10T10:08:18;96072.25;;;4.06;44.13
6128;BME280;7073;42.672;23.256;2023-02-10T10:10:49;96069.00;;;3.55;43.93
6128;BME280;7073;42.672;23.256;2023-02-10T10:13:21;96066.34;;;3.76;43.63
6128;BME280;7073;42.672;23.256;2023-02-10T10:16:00;96060.47;;;4.32;43.63
6128;BME280;7073;42.672;23.256;2023-02-10T10:18:33;96061.59;;;4.68;42.79
6128;BME280;7073;42.672;23.256;2023-02-10T10:21:06;96060.84;;;6.15;41.32
6128;BME280;7073;42.672;23.256;2023-02-10T10:23:48;96051.81;;;8.58;37.01
6128;BME280;7073;42.672;23.256;2023-02-10T10:26:37;96051.66;;;6.48;37.75
6128;BME280;7073;42.672;23.256;2023-02-10T10:29:19;96038.69;;;5.12;40.40
6128;BME280;7073;42.672;23.256;2023-02-10T10:31:49;96034.09;;;4.96;41.77
6128;BME280;7073;42.672;23.256;2023-02-10T10:34:21;96033.84;;;4.80;42.46
6128;BME280;7073;42.672;23.256;2023-02-10T10:36:54;96033.88;;;6.18;41.02
6128;BME280;7073;42.672;23.256;2023-02-10T10:39:29;96041.53;;;5.55;40.14
6128;BME280;7073;42.672;23.256;2023-02-10T10:42:01;96030.69;;;6.41;39.77
6128;BME280;7073;42.672;23.256;2023-02-10T10:44:30;96030.91;;;6.65;38.58
6128;BME280;7073;42.672;23.256;2023-02-10T10:47:04;96027.13;;;5.80;39.79
6128;BME280;7073;42.672;23.256;2023-02-10T10:49:34;96017.25;;;6.20;38.87
6128;BME280;7073;42.672;23.256;2023-02-10T10:52:01;96011.28;;;5.65;38.54
6128;BME280;7073;42.672;23.256;2023-02-10T10:54:30;96012.09;;;5.38;40.40
6128;BME280;7073;42.672;23.256;2023-02-10T10:57:00;96013.19;;;6.53;38.22
6128;BME280;7073;42.672;23.256;2023-02-10T10:59:32;96003.44;;;5.20;39.54
6128;BME280;7073;42.672;23.256;2023-02-10T11:02:11;96008.91;;;4.52;40.32
6128;BME280;7073;42.672;23.256;2023-02-10T11:04:38;96000.03;;;3.78;43.46
6128;BME280;7073;42.672;23.256;2023-02-10T11:07:09;96008.31;;;4.77;40.47
6128;BME280;7073;42.672;23.256;2023-02-10T11:09:40;96004.75;;;4.87;40.36
6128;BME280;7073;42.672;23.256;2023-02-10T11:12:15;96001.34;;;6.15;40.04
6128;BME280;7073;42.672;23.256;2023-02-10T11:14:46;95994.75;;;5.21;40.29
6128;BME280;7073;42.672;23.256;2023-02-10T11:17:22;95990.19;;;5.42;40.34
6128;BME280;7073;42.672;23.256;2023-02-10T11:19:55;95994.03;;;5.29;40.72
6128;BME280;7073;42.672;23.256;2023-02-10T11:22:22;95987.66;;;6.05;39.49
6128;BME280;7073;42.672;23.256;2023-02-10T11:24:54;95986.41;;;6.09;38.58
6128;BME280;7073;42.672;23.256;2023-02-10T11:27:22;95987.75;;;6.31;39.59
6128;BME280;7073;42.672;23.256;2023-02-10T11:29:51;95980.56;;;5.62;38.83
6128;BME280;7073;42.672;23.256;2023-02-10T11:32:20;95984.09;;;4.87;40.07
6128;BME280;7073;42.672;23.256;2023-02-10T11:34:49;95976.59;;;5.04;40.32
6128;BME280;7073;42.672;23.256;2023-02-10T11:37:21;95973.31;;;5.38;40.62
6128;BME280;7073;42.672;23.256;2023-02-10T11:39:50;95971.34;;;6.40;38.70
6128;BME280;7073;42.672;23.256;2023-02-10T11:42:22;95974.16;;;7.23;38.54
6128;BME280;7073;42.672;23.256;2023-02-10T11:44:55;95966.28;;;7.07;37.51
6128;BME280;7073;42.672;23.256;2023-02-10T11:47:22;95963.00;;;6.54;38.78
6128;BME280;7073;42.672;23.256;2023-02-10T11:49:49;95967.41;;;6.79;38.65
6128;BME280;7073;42.672;23.256;2023-02-10T11:52:17;95970.50;;;6.83;37.76
6128;BME280;7073;42.672;23.256;2023-02-10T11:54:46;95967.44;;;6.61;38.94
6128;BME280;7073;42.672;23.256;2023-02-10T11:57:29;95966.19;;;6.91;38.17
6128;BME280;7073;42.672;23.256;2023-02-10T12:00:19;95957.72;;;6.38;38.87
6128;BME280;7073;42.672;23.256;2023-02-10T12:03:22;95944.44;;;8.18;36.02
6128;BME280;7073;42.672;23.256;2023-02-10T12:05:55;95958.81;;;7.88;35.78
6128;BME280;7073;42.672;23.256;2023-02-10T12:08:31;95945.41;;;8.17;36.50
6128;BME280;7073;42.672;23.256;2023-02-10T12:11:04;95953.03;;;8.02;36.83
6128;BME280;7073;42.672;23.256;2023-02-10T12:13:41;95936.28;;;6.97;37.65
6128;BME280;7073;42.672;23.256;2023-02-10T12:16:18;95933.41;;;7.42;36.39
6128;BME280;7073;42.672;23.256;2023-02-10T12:18:56;95932.94;;;7.46;37.47
6128;BME280;7073;42.672;23.256;2023-02-10T12:21:41;95932.50;;;7.67;36.48
6128;BME280;7073;42.672;23.256;2023-02-10T12:24:26;95920.69;;;7.72;36.06
6128;BME280;7073;42.672;23.256;2023-02-10T12:26:56;95933.31;;;7.67;36.54
6128;BME280;7073;42.672;23.256;2023-02-10T12:29:37;95925.50;;;7.51;37.42
6128;BME280;7073;42.672;23.256;2023-02-10T12:32:13;95930.59;;;7.77;36.47
6128;BME280;7073;42.672;23.256;2023-02-10T12:34:59;95925.59;;;7.91;35.91
6128;BME280;7073;42.672;23.256;2023-02-10T12:37:35;95923.84;;;7.00;37.37
6128;BME280;7073;42.672;23.256;2023-02-10T12:40:18;95919.91;;;7.30;36.94
6128;BME280;7073;42.672;23.256;2023-02-10T12:42:54;95921.34;;;7.24;37.54
6128;BME280;7073;42.672;23.256;2023-02-10T12:45:28;95911.69;;;7.34;37.51
6128;BME280;7073;42.672;23.256;2023-02-10T12:48:05;95908.63;;;7.39;37.59
6128;BME280;7073;42.672;23.256;2023-02-10T12:50:47;95906.03;;;7.39;37.58
6128;BME280;7073;42.672;23.256;2023-02-10T12:53:23;95909.91;;;7.01;37.70
6128;BME280;7073;42.672;23.256;2023-02-10T12:55:54;95904.38;;;7.38;38.23
6128;BME280;7073;42.672;23.256;2023-02-10T12:58:26;95903.75;;;7.44;38.18
6128;BME280;7073;42.672;23.256;2023-02-10T13:01:04;95915.66;;;7.63;36.59
6128;BME280;7073;42.672;23.256;2023-02-10T13:03:33;95908.47;;;7.49;37.21
6128;BME280;7073;42.672;23.256;2023-02-10T13:06:11;95917.75;;;7.67;36.02
6128;BME280;7073;42.672;23.256;2023-02-10T13:08:45;95913.19;;;7.61;37.45
6128;BME280;7073;42.672;23.256;2023-02-10T13:11:17;95913.19;;;7.45;36.90
6128;BME280;7073;42.672;23.256;2023-02-10T13:13:47;95906.81;;;7.31;37.88
6128;BME280;7073;42.672;23.256;2023-02-10T13:16:18;95906.03;;;7.47;36.46
6128;BME280;7073;42.672;23.256;2023-02-10T13:18:52;95913.84;;;7.55;38.62
6128;BME280;7073;42.672;23.256;2023-02-10T13:21:24;95912.97;;;7.38;37.25
6128;BME280;7073;42.672;23.256;2023-02-10T13:23:58;95912.66;;;8.64;35.80
6128;BME280;7073;42.672;23.256;2023-02-10T13:26:40;95918.06;;;9.17;34.83
6128;BME280;7073;42.672;23.256;2023-02-10T13:29:17;95915.91;;;8.18;35.82
6128;BME280;7073;42.672;23.256;2023-02-10T13:31:59;95904.03;;;6.91;39.43